Terminal Aerodrome Forecast
Issued by NWS

Home | Current Version | Previous Version | Text Only | Print | Product List | Glossary On
Versions: 1 2 3 4 5 6 7 8 9 10 11 12 13 14 15 16 17 18 19 20 21 22 23 24
218
FTUS41 KPBZ 110520
TAFDUJ
TAF
KDUJ 110520Z 1106/1206 27007KT 3/4SM -SHSN OVC007
     FM110900 30012G22KT 3SM -SHSN OVC013
     FM111200 30012G22KT 5SM -SHSN OVC020=

USA.gov is the U.S. government's official web portal to all federal, state and local government web resources and services.